WetterOnline ( https://www.wetteronline.de )

Wetter aktuell Eigenrode

Aktuelles Wetter: Leinefelde (356m)

6-stündlich | Neueste Meldungen
Ortszeit Temperatur Wetter
Fr, 19.04. 14:00 5.1° C bedeckt
Fr, 19.04. 8:00 3.9° C leichter Regen
Fr, 19.04. 2:00 4.6° C bedeckt
Do, 18.04. 20:00 7.0° C wolkig
Do, 18.04. 14:00 8.0° C bewölkt
Do, 18.04. 8:00 2.1° C Nebel
Do, 18.04. 2:00 3.2° C Sprühregen
Mi, 17.04. 20:00 2.7° C wolkenlos
Ortszeit Temperatur Wetter
Fr, 19.04. 14:30 5.2° C bedeckt
Fr, 19.04. 14:20 5.2° C bedeckt
Fr, 19.04. 14:10 5.2° C bedeckt
Fr, 19.04. 14:00 5.1° C bedeckt
Fr, 19.04. 13:50 5.1° C bedeckt
Fr, 19.04. 13:40 5.2° C bedeckt
Fr, 19.04. 13:30 5.1° C Sprühregen
Fr, 19.04. 13:00 4.6° C Sprühregen
Fr, 19.04. 12:30 4.7° C leichter Regen
Fr, 19.04. 12:00 4.6° C Regen
Fr, 19.04. 11:30 4.2° C Sprühregen
Ortszeit Relative Feuchte Sichtweite
Fr, 19.04. 14:00 88% 55 km
Fr, 19.04. 8:00 88% 18 km
Fr, 19.04. 2:00 74% 60 km
Do, 18.04. 20:00 69% 55 km
Do, 18.04. 14:00 65% 60 km
Do, 18.04. 8:00 100% 0.2 km
Do, 18.04. 2:00 94% 18 km
Mi, 17.04. 20:00 94% 55 km
Ortszeit Relative Feuchte Sichtweite
Fr, 19.04. 14:30 88% 60 km
Fr, 19.04. 14:20 88% -
Fr, 19.04. 14:10 88% -
Fr, 19.04. 14:00 88% 55 km
Fr, 19.04. 13:50 88% -
Fr, 19.04. 13:40 89% -
Fr, 19.04. 13:30 90% 17 km
Fr, 19.04. 13:00 88% 35 km
Fr, 19.04. 12:30 87% 15 km
Fr, 19.04. 12:00 89% 28 km
Fr, 19.04. 11:30 91% 19 km
Ortszeit Niederschlagsmenge Niederschlagsart
Fr, 19.04. 14:00 1 l/m2 in 6 Std. Regen
Fr, 19.04. 8:00 1 l/m2 in 12 Std. Regen
Fr, 19.04. 2:00 0.0 l/m2 in 6 Std. -
Do, 18.04. 20:00 0.4 l/m2 in 12 Std. Regen
Do, 18.04. 14:00 0.0 l/m2 in 6 Std. -
Do, 18.04. 8:00 1 l/m2 in 12 Std. Regen
Do, 18.04. 2:00 1 l/m2 in 6 Std. Regen
Mi, 17.04. 20:00 8 l/m2 in 12 Std. Regen
Ortszeit Niederschlagsmenge Niederschlagsart
Fr, 19.04. 14:30 0.0 l/m2 in 30 Min -
Fr, 19.04. 14:20 keine Meldung -
Fr, 19.04. 14:10 keine Meldung -
Fr, 19.04. 14:00 <0.05 l/m2 in 1 Std. Regen
Fr, 19.04. 13:50 keine Meldung -
Fr, 19.04. 13:40 keine Meldung -
Fr, 19.04. 13:30 <0.05 l/m2 in 30 Min -
Fr, 19.04. 13:00 <0.05 l/m2 in 1 Std. Regen
Fr, 19.04. 12:30 <0.05 l/m2 in 30 Min -
Fr, 19.04. 12:00 <0.05 l/m2 in 1 Std. Regen
Fr, 19.04. 11:30 <0.05 l/m2 in 30 Min -
Ortszeit Stärke Spitze Richtung
km/h Bft. km/h Grad Sektor
Fr, 19.04. 14:00 13 3 57 230° SW
Fr, 19.04. 8:00 19 3 44 220° SW
Fr, 19.04. 2:00 4 1 22 250° W
Do, 18.04. 20:00 11 2 32 280° W
Do, 18.04. 14:00 13 3 22 320° NW
Do, 18.04. 8:00 9 2 19 350° N
Do, 18.04. 2:00 6 1 13 280° W
Mi, 17.04. 20:00 6 1 39 340° N
Ortszeit Stärke Spitze Richtung
km/h Bft. km/h Grad Sektor
Fr, 19.04. 14:30 14 3 25 220° SW
Fr, 19.04. 14:20 14 3 - 220° SW
Fr, 19.04. 14:10 17 3 - 220° SW
Fr, 19.04. 14:00 13 3 37 230° SW
Fr, 19.04. 13:50 13 3 - 230° SW
Fr, 19.04. 13:40 13 3 - 230° SW
Fr, 19.04. 13:30 14 3 36 240° SW
Fr, 19.04. 13:00 18 3 36 240° SW
Fr, 19.04. 12:30 22 4 37 240° SW
Fr, 19.04. 12:00 22 4 44 240° SW
Fr, 19.04. 11:30 22 4 43 240° SW
Ortszeit Untergrenze Bedeckung Gattung
total tief tief mittel hoch
Fr, 19.04. 14:00 300 m 8/8 8/8 - - -
Fr, 19.04. 8:00 480 m 7/8 7/8 - - -
Fr, 19.04. 2:00 1500 m 8/8 8/8 - - -
Do, 18.04. 20:00 1500 m 7/8 3/8 - - -
Do, 18.04. 14:00 780 m 7/8 7/8 - - -
Do, 18.04. 8:00 30 m 8/8 8/8 - - -
Do, 18.04. 2:00 780 m 5/8 5/8 - - -
Mi, 17.04. 20:00 - 0/8 0/8 - - -
Ortszeit Bedeckungsgrad in Achtel und Wolkenuntergrenze
Fr, 19.04. 14:30 8(330m)
Fr, 19.04. 14:20 8(330m)
Fr, 19.04. 14:10 8
Fr, 19.04. 14:00 8(300m)
Fr, 19.04. 13:50 8(300m)
Fr, 19.04. 13:40 8
Fr, 19.04. 13:30 8(360m)
Fr, 19.04. 13:00 8(390m)
Fr, 19.04. 12:30 7(420m) 8(630m)
Fr, 19.04. 12:00 7(480m)
Fr, 19.04. 11:30 3(390m) 8(570m)
Ortszeit Luftdruck NN (hPa) Tendenz (hPa in 3 Std.)
Fr, 19.04. 14:00 1005 - 1,5
Fr, 19.04. 8:00 1009 - 3,6
Fr, 19.04. 2:00 1016 - 1,3
Do, 18.04. 20:00 1017 0,0
Do, 18.04. 14:00 1017 + 0,4
Do, 18.04. 8:00 1016 + 2,0
Do, 18.04. 2:00 1013 + 0,7
Mi, 17.04. 20:00 1011 + 1,3
Ortszeit Luftdruck NN (hPa) Tendenz (hPa in 3 Std.)
Fr, 19.04. 14:30 1005 - 1,5
Fr, 19.04. 14:20 1005 keine Meldung
Fr, 19.04. 14:10 1005 keine Meldung
Fr, 19.04. 14:00 1005 - 1,5
Fr, 19.04. 13:50 1005 keine Meldung
Fr, 19.04. 13:40 1005 keine Meldung
Fr, 19.04. 13:30 1005 - 1,4
Fr, 19.04. 13:00 1006 - 1,5
Fr, 19.04. 12:30 1006 - 1,6
Fr, 19.04. 12:00 1006 - 2,0
Fr, 19.04. 11:30 1006 - 2,3
Ortszeit Schneehöhe (cm)
Fr, 19.04. 14:00 0
Fr, 19.04. 8:00 0
Fr, 19.04. 2:00 0
Do, 18.04. 20:00 0
Do, 18.04. 14:00 0
Do, 18.04. 8:00 0
Do, 18.04. 2:00 0
Mi, 17.04. 20:00 0
Ortszeit Schneehöhe (cm)
Fr, 19.04. 14:30 0
Fr, 19.04. 14:20 0
Fr, 19.04. 14:10 -
Fr, 19.04. 14:00 0
Fr, 19.04. 13:50 0
Fr, 19.04. 13:40 -
Fr, 19.04. 13:30 0
Fr, 19.04. 13:00 0
Fr, 19.04. 12:30 0
Fr, 19.04. 12:00 0
Fr, 19.04. 11:30 0
Link zu dieser Seite / Seite empfehlen

Das Wetter in ...